Portada
METAR-TAF:

METAR-TAF

Aeropuertos :

Bishop, California, Estados Unidos

latitud: 37-22-16N, longitud: 118-21-29W, altitud: 1256 m

Observación

El informe se hizo hace 7 minutos, a las 20:56 UTC
Viento 4 kt con dirección variable
Temperatura 22°C
Humedad 13%
Presión 1021 hPa
Visibilidad: 16.1 km
Cielo despejado

METAR: KBIH 162056Z AUTO VRB04KT 10SM CLR 22/M08 A3015 RMK AO2 SLP184 T02221083 58034

Hora: 14:03 (21:03 UTC)

Pronóstico

El informe se hizo hace 3 horas y 43 minutos, a las 17:20 UTC
Pronóstico válido del 16 a las 18 UTC al 17 a las 18 UTC
Viento 10 kt del norte
Visibilidad: 10 km
Cielo despejado

TAF: KBIH 161720Z 1618/1718 35010KT P6SM SKC

Observaciones y pronósticos meteorológicos de más de 4000 aeropuertos (mensajes METAR y TAF).

Los puntos amarillos y rojos representan las estaciones disponibles.

Ponga el ratón en el punto deseado para ver el nombre de la estación.

Haga clic para ver las observaciones y los pronósticos meteorológicos.

Para cambiar el mapa : haga clic en los botones verdes con una cruz de color negro para hacer un zoom, en el botón verde con un guión para alejar o en las flechas verdes para mapas adyacentes.


METAR-TAF: